Terminal Aerodrome Forecast
Issued by NWS

Home | Current Version | Previous Version | Text Only | Print | Product List | Glossary On
Versions: 1 2 3 4 5 6 7 8 9 10 11 12
000
FTUS45 KRIW 191122
TAFCPR
TAF
KCPR 191122Z 1912/2012 24011KT P6SM SCT250
     FM191500 22013G21KT P6SM SCT250
     FM191600 22020G30KT P6SM BKN250
     FM200100 21017KT P6SM BKN250=

USA.gov is the U.S. government's official web portal to all federal, state and local government web resources and services.